createdAt,value
2023-03-24T00:00:48.001Z,94881.97
2023-03-24T00:03:17.243Z,94876.84
2023-03-24T00:05:45.306Z,94873.63
2023-03-24T00:08:13.109Z,94878.09
2023-03-24T00:10:42.577Z,94887.13
2023-03-24T00:13:10.515Z,94882.81
2023-03-24T00:15:38.182Z,94880.88
2023-03-24T00:18:10.778Z,94884.81
2023-03-24T00:20:38.733Z,94893.19
2023-03-24T00:23:06.499Z,94883.47
2023-03-24T00:25:36.303Z,94889.56
2023-03-24T00:28:05.940Z,94878.94
2023-03-24T00:30:35.042Z,94875.19
2023-03-24T00:33:04.179Z,94871.63
2023-03-24T00:35:33.466Z,94867.84
2023-03-24T00:38:01.064Z,94866.28
2023-03-24T00:40:28.740Z,94868.00
2023-03-24T00:42:56.421Z,94863.00
2023-03-24T00:45:24.187Z,94859.72
2023-03-24T00:47:54.058Z,94855.06
2023-03-24T00:50:26.482Z,94843.25
2023-03-24T00:52:58.276Z,94839.03
2023-03-24T00:55:28.985Z,94846.44
2023-03-24T00:57:57.369Z,94844.22
2023-03-24T01:00:27.302Z,94848.72
2023-03-24T01:02:57.186Z,94852.59
2023-03-24T01:05:28.958Z,94858.72
2023-03-24T01:07:59.149Z,94859.53
2023-03-24T01:10:27.859Z,94878.44
2023-03-24T01:12:58.062Z,94893.03
2023-03-24T01:15:29.526Z,94871.97
2023-03-24T01:17:58.294Z,94862.31
2023-03-24T01:20:26.494Z,94873.13
2023-03-24T01:22:54.456Z,94886.41
2023-03-24T01:25:25.687Z,94857.38
2023-03-24T01:27:53.934Z,94842.09
2023-03-24T01:30:25.616Z,94848.00
2023-03-24T01:32:54.045Z,94854.88
2023-03-24T01:35:23.000Z,94845.28
2023-03-24T01:37:50.818Z,94854.81
2023-03-24T01:40:21.246Z,94848.34
2023-03-24T01:42:51.237Z,94855.66
2023-03-24T01:45:42.460Z,94860.53
2023-03-24T01:48:16.957Z,94843.44
2023-03-24T01:50:48.914Z,94833.91
2023-03-24T01:53:17.003Z,94839.41
2023-03-24T01:55:48.344Z,94833.53
2023-03-24T01:58:21.735Z,94845.84
2023-03-24T02:01:11.070Z,94841.69
2023-03-24T02:03:58.895Z,94845.66
2023-03-24T02:06:28.233Z,94845.81
2023-03-24T02:09:01.295Z,94847.25
2023-03-24T02:11:31.809Z,94853.38
2023-03-24T02:14:05.077Z,94851.22
2023-03-24T02:16:55.223Z,94827.75
2023-03-24T02:19:58.447Z,94825.34
2023-03-24T02:23:18.011Z,94815.56
2023-03-24T02:26:23.358Z,94809.91
2023-03-24T02:29:04.901Z,94811.50
2023-03-24T02:31:52.995Z,94797.09
2023-03-24T02:34:50.254Z,94789.81
2023-03-24T02:38:09.389Z,94783.69
2023-03-24T02:40:44.315Z,94785.16
2023-03-24T02:43:28.778Z,94771.13
2023-03-24T02:46:13.603Z,94766.44
2023-03-24T02:48:49.696Z,94768.69
2023-03-24T02:51:23.762Z,94759.56
2023-03-24T02:54:00.315Z,94752.16
2023-03-24T02:56:37.470Z,94744.81
2023-03-24T02:59:22.078Z,94740.50
2023-03-24T03:01:59.973Z,94737.88
2023-03-24T03:04:46.408Z,94742.34
2023-03-24T03:07:16.618Z,94740.34
2023-03-24T03:09:52.736Z,94749.31
2023-03-24T03:12:23.910Z,94755.13
2023-03-24T03:14:55.225Z,94743.44
2023-03-24T03:17:30.610Z,94742.28
2023-03-24T03:20:08.302Z,94728.09
2023-03-24T03:22:43.254Z,94728.41
2023-03-24T03:25:15.452Z,94726.44
2023-03-24T03:27:47.040Z,94721.31
2023-03-24T03:30:18.439Z,94723.06
2023-03-24T03:32:54.573Z,94714.59
2023-03-24T03:35:27.919Z,94719.88
2023-03-24T03:38:06.381Z,94717.13
2023-03-24T03:40:39.125Z,94712.66
2023-03-24T03:43:16.441Z,94715.78
2023-03-24T03:45:44.330Z,94722.09
2023-03-24T03:48:12.539Z,94722.09
2023-03-24T03:50:40.372Z,94713.59
2023-03-24T03:53:09.950Z,94718.06
2023-03-24T03:55:38.180Z,94714.03
2023-03-24T03:58:06.348Z,94713.22
2023-03-24T04:00:52.022Z,94720.13
2023-03-24T04:04:06.915Z,94713.63
2023-03-24T04:07:08.082Z,94721.41
2023-03-24T04:09:47.404Z,94709.63
2023-03-24T04:12:39.256Z,94713.94
2023-03-24T04:15:36.727Z,94718.44
2023-03-24T04:18:38.757Z,94711.94
2023-03-24T04:21:23.197Z,94720.31
2023-03-24T04:23:58.492Z,94723.28
2023-03-24T04:26:34.251Z,94733.63
2023-03-24T04:29:14.288Z,94732.16
2023-03-24T04:31:49.217Z,94726.72
2023-03-24T04:34:22.422Z,94741.97
2023-03-24T04:36:54.591Z,94737.50
2023-03-24T04:39:40.780Z,94753.28
2023-03-24T04:42:19.344Z,94752.34
2023-03-24T04:44:51.344Z,94757.81
2023-03-24T04:47:43.954Z,94768.31
2023-03-24T04:50:34.348Z,94763.03
2023-03-24T04:53:08.940Z,94764.59
2023-03-24T04:55:54.528Z,94767.06
2023-03-24T04:58:45.425Z,94757.06
2023-03-24T05:01:14.138Z,94760.53
2023-03-24T05:03:46.058Z,94762.47
2023-03-24T05:06:15.448Z,94748.53
2023-03-24T05:08:43.232Z,94746.88
2023-03-24T05:11:11.235Z,94753.88
2023-03-24T05:13:44.495Z,94747.91
2023-03-24T05:16:12.143Z,94743.75
2023-03-24T05:18:44.554Z,94724.09
2023-03-24T05:21:12.292Z,94702.00
2023-03-24T05:23:41.620Z,94685.16
2023-03-24T05:26:09.794Z,94685.28
2023-03-24T05:28:50.833Z,94682.63
2023-03-24T05:31:18.993Z,94681.38
2023-03-24T05:33:55.771Z,94674.03
2023-03-24T05:36:24.899Z,94679.03
2023-03-24T05:38:57.482Z,94678.00
2023-03-24T05:41:35.390Z,94681.69
2023-03-24T05:44:03.438Z,94688.91
2023-03-24T05:46:31.216Z,94682.69
2023-03-24T05:49:00.388Z,94681.78
2023-03-24T05:51:33.285Z,94681.34
2023-03-24T05:54:09.057Z,94686.97
2023-03-24T05:56:44.408Z,94692.66
2023-03-24T05:59:15.575Z,94692.28
2023-03-24T06:02:09.697Z,94693.50
2023-03-24T06:04:49.790Z,94686.81
2023-03-24T06:07:20.556Z,94689.13
2023-03-24T06:09:51.087Z,94692.50
2023-03-24T06:12:21.554Z,94700.84
2023-03-24T06:14:54.908Z,94705.44
2023-03-24T06:17:24.471Z,94682.22
2023-03-24T06:20:02.799Z,94688.94
2023-03-24T06:22:59.006Z,94689.66
2023-03-24T06:25:33.723Z,94698.59
2023-03-24T06:28:16.873Z,94715.19
2023-03-24T06:30:47.438Z,94714.19
2023-03-24T06:33:22.075Z,94710.66
2023-03-24T06:35:51.824Z,94736.63
2023-03-24T06:38:19.959Z,94757.69
2023-03-24T06:40:49.584Z,94750.16
2023-03-24T06:43:17.238Z,94760.88
2023-03-24T06:45:45.743Z,94772.97
2023-03-24T06:48:23.409Z,94773.34
2023-03-24T06:50:54.987Z,94779.75
2023-03-24T06:53:23.728Z,94784.19
2023-03-24T06:55:53.030Z,94787.44
2023-03-24T06:58:23.678Z,94775.97
2023-03-24T07:01:01.528Z,94780.25
2023-03-24T07:03:54.310Z,94789.63
2023-03-24T07:06:29.672Z,94786.31
2023-03-24T07:09:02.953Z,94800.88
2023-03-24T07:11:32.740Z,94794.38
2023-03-24T07:14:03.203Z,94812.34
2023-03-24T07:16:32.136Z,94808.69
2023-03-24T07:19:20.896Z,94829.28
2023-03-24T07:21:54.015Z,94836.75
2023-03-24T07:24:32.348Z,94827.97
2023-03-24T07:27:15.095Z,94821.00
2023-03-24T07:29:42.718Z,94832.31
2023-03-24T07:32:24.697Z,94834.28
2023-03-24T07:34:52.885Z,94834.09
2023-03-24T07:37:20.489Z,94831.50
2023-03-24T07:39:49.066Z,94834.41
2023-03-24T07:42:18.086Z,94831.53
2023-03-24T07:45:06.396Z,94836.69
2023-03-24T07:47:33.999Z,94834.75
2023-03-24T07:50:04.164Z,94840.97
2023-03-24T07:52:31.780Z,94841.66
2023-03-24T07:54:59.522Z,94836.88
2023-03-24T07:57:52.331Z,94835.44
2023-03-24T08:00:21.592Z,94840.97
2023-03-24T08:03:04.725Z,94836.19
2023-03-24T08:05:58.997Z,94833.84
2023-03-24T08:08:39.526Z,94831.78
2023-03-24T08:11:07.427Z,94843.97
2023-03-24T08:13:36.381Z,94839.28
2023-03-24T08:16:04.623Z,94840.38
2023-03-24T08:18:34.909Z,94843.56
2023-03-24T08:21:02.725Z,94846.56
2023-03-24T08:23:30.411Z,94853.00
2023-03-24T08:25:58.029Z,94847.59
2023-03-24T08:28:25.731Z,94859.78
2023-03-24T08:30:54.736Z,94845.22
2023-03-24T08:33:22.364Z,94861.00
2023-03-24T08:35:51.552Z,94863.59
2023-03-24T08:38:23.051Z,94862.44
2023-03-24T08:40:52.277Z,94866.72
2023-03-24T08:43:23.116Z,94870.19
2023-03-24T08:45:51.133Z,94855.84
2023-03-24T08:48:20.304Z,94873.41
2023-03-24T08:50:47.870Z,94868.81
2023-03-24T08:53:15.562Z,94864.22
2023-03-24T08:55:44.792Z,94869.53
2023-03-24T08:58:15.245Z,94876.97
2023-03-24T09:00:44.263Z,94890.47
2023-03-24T09:03:18.074Z,94889.59
2023-03-24T09:05:47.794Z,94900.59
2023-03-24T09:08:17.713Z,94888.28
2023-03-24T09:10:46.907Z,94875.97
2023-03-24T09:13:14.992Z,94880.94
2023-03-24T09:15:49.101Z,94883.09
2023-03-24T09:18:17.244Z,94890.22
2023-03-24T09:20:45.976Z,94891.03
2023-03-24T09:23:15.368Z,94895.88
2023-03-24T09:25:43.147Z,94918.38
2023-03-24T09:28:10.997Z,94904.88
2023-03-24T09:30:38.899Z,94916.34
2023-03-24T09:33:06.690Z,94911.44
2023-03-24T09:35:35.584Z,94917.53
2023-03-24T09:38:03.736Z,94923.41
2023-03-24T09:40:37.683Z,94927.78
2023-03-24T09:43:08.000Z,94936.28
2023-03-24T09:45:43.199Z,94942.19
2023-03-24T09:48:16.495Z,94884.09
2023-03-24T09:50:50.975Z,94934.25
2023-03-24T09:53:29.300Z,94936.28
2023-03-24T09:56:02.937Z,94939.13
2023-03-24T09:58:33.662Z,94931.66
2023-03-24T10:01:01.685Z,94946.81
2023-03-24T10:03:29.822Z,94932.91
2023-03-24T10:06:01.815Z,94942.41
2023-03-24T10:08:36.295Z,94950.69
2023-03-24T10:11:12.533Z,94947.81
2023-03-24T10:13:52.098Z,94959.19
2023-03-24T10:16:28.076Z,94950.13
2023-03-24T10:19:03.020Z,94953.66
2023-03-24T10:21:36.615Z,94951.22
2023-03-24T10:24:11.294Z,94946.25
2023-03-24T10:26:48.085Z,94950.81
2023-03-24T10:29:24.241Z,94951.84
2023-03-24T10:31:54.534Z,94945.59
2023-03-24T10:34:25.952Z,94952.38
2023-03-24T10:36:54.598Z,94946.13
2023-03-24T10:39:26.286Z,94942.59
2023-03-24T10:42:07.253Z,94930.69
2023-03-24T10:44:35.445Z,94914.81
2023-03-24T10:47:08.488Z,94878.34
2023-03-24T10:49:36.131Z,94886.88
2023-03-24T10:52:10.701Z,94884.38
2023-03-24T10:54:38.293Z,94886.22
2023-03-24T10:57:17.632Z,94886.38
2023-03-24T10:59:55.242Z,94888.88
2023-03-24T11:02:25.812Z,94880.56
2023-03-24T11:04:58.149Z,94872.53
2023-03-24T11:07:31.153Z,94882.47
2023-03-24T11:10:02.022Z,94872.06
2023-03-24T11:12:33.084Z,94864.66
2023-03-24T11:15:26.187Z,94874.59
2023-03-24T11:17:56.650Z,94867.66
2023-03-24T11:20:29.565Z,94872.50
2023-03-24T11:23:00.422Z,94878.03
2023-03-24T11:25:31.291Z,94875.72
2023-03-24T11:28:04.743Z,94859.78
2023-03-24T11:30:36.031Z,94850.53
2023-03-24T11:33:05.203Z,94860.94
2023-03-24T11:35:41.714Z,94856.53
2023-03-24T11:38:17.738Z,94856.53
2023-03-24T11:40:54.721Z,94852.97
2023-03-24T11:43:23.832Z,94843.41
2023-03-24T11:45:59.327Z,94861.44
2023-03-24T11:48:33.280Z,94855.03
2023-03-24T11:51:02.250Z,94867.97
2023-03-24T11:53:34.379Z,94876.94
2023-03-24T11:56:07.652Z,94868.09
2023-03-24T11:58:44.207Z,94854.59
2023-03-24T12:01:18.068Z,94878.03
2023-03-24T12:04:10.011Z,94874.50
2023-03-24T12:06:50.037Z,94876.44
2023-03-24T12:09:32.470Z,94888.44
2023-03-24T12:12:17.603Z,94887.38
2023-03-24T12:15:14.395Z,94879.22
2023-03-24T12:17:56.710Z,94844.63
2023-03-24T12:20:29.302Z,94809.22
2023-03-24T12:23:01.775Z,94812.97
2023-03-24T12:26:07.771Z,94827.00
2023-03-24T12:28:47.279Z,94838.09
2023-03-24T12:31:41.594Z,94839.03
2023-03-24T12:34:29.148Z,94849.94
2023-03-24T12:37:02.764Z,94855.81
2023-03-24T12:39:33.125Z,94866.72
2023-03-24T12:42:12.789Z,94862.50
2023-03-24T12:45:05.959Z,94857.50
2023-03-24T12:48:21.040Z,94870.47
2023-03-24T12:51:00.156Z,94859.06
2023-03-24T12:53:42.844Z,94842.13
2023-03-24T12:56:16.445Z,94846.25
2023-03-24T12:58:47.765Z,94817.41
2023-03-24T13:01:24.504Z,94801.31
2023-03-24T13:03:59.451Z,94788.81
2023-03-24T13:06:30.741Z,94771.78
2023-03-24T13:09:08.085Z,94796.66
2023-03-24T13:11:47.088Z,94815.50
2023-03-24T13:14:22.783Z,94825.47
2023-03-24T13:16:51.725Z,94824.59
2023-03-24T13:19:25.672Z,94800.81
2023-03-24T13:21:57.386Z,94812.13
2023-03-24T13:24:26.685Z,94815.88
2023-03-24T13:27:07.434Z,94816.59
2023-03-24T13:30:15.946Z,94827.94
2023-03-24T13:32:49.038Z,94831.16
2023-03-24T13:35:32.940Z,94846.78
2023-03-24T13:38:17.884Z,94827.00
2023-03-24T13:40:48.494Z,94834.59
2023-03-24T13:43:22.306Z,94827.69
2023-03-24T13:45:52.311Z,94855.09
2023-03-24T13:48:28.346Z,94848.91
2023-03-24T13:51:01.232Z,94831.13
2023-03-24T13:53:36.998Z,94836.50
2023-03-24T13:56:08.209Z,94822.69
2023-03-24T13:58:51.880Z,94809.19
2023-03-24T14:01:33.807Z,94802.53
2023-03-24T14:04:22.889Z,94796.66
2023-03-24T14:06:53.938Z,94790.78
2023-03-24T14:09:23.258Z,94779.25
2023-03-24T14:12:10.649Z,94776.91
2023-03-24T14:15:14.806Z,94802.66
2023-03-24T14:17:44.771Z,94813.00
2023-03-24T14:20:25.789Z,94824.09
2023-03-24T14:22:55.615Z,94829.31
2023-03-24T14:25:27.220Z,94819.00
2023-03-24T14:28:07.381Z,94829.31
2023-03-24T14:30:38.205Z,94827.81
2023-03-24T14:33:06.718Z,94829.63
2023-03-24T14:35:37.088Z,94827.72
2023-03-24T14:38:21.327Z,94830.78
2023-03-24T14:40:51.360Z,94843.59
2023-03-24T14:43:23.244Z,94830.25
2023-03-24T14:46:00.048Z,94840.34
2023-03-24T14:48:34.941Z,94849.03
2023-03-24T14:51:09.849Z,94842.41
2023-03-24T14:53:39.893Z,94840.47
2023-03-24T14:56:13.284Z,94838.69
2023-03-24T14:58:44.000Z,94846.31
2023-03-24T15:01:13.010Z,94846.34
2023-03-24T15:03:49.737Z,94842.19
2023-03-24T15:06:19.179Z,94843.25
2023-03-24T15:08:51.227Z,94839.84
2023-03-24T15:11:24.344Z,94856.13
2023-03-24T15:13:53.362Z,94859.38
2023-03-24T15:16:24.894Z,94842.69
2023-03-24T15:19:01.495Z,94849.41
2023-03-24T15:21:34.827Z,94856.72
2023-03-24T15:24:23.850Z,94854.28
2023-03-24T15:26:54.714Z,94859.53
2023-03-24T15:29:23.335Z,94868.88
2023-03-24T15:31:52.104Z,94869.56
2023-03-24T15:34:28.344Z,94874.16
2023-03-24T15:36:58.516Z,94888.03
2023-03-24T15:39:30.300Z,94882.75
2023-03-24T15:41:58.204Z,94877.84
2023-03-24T15:44:30.879Z,94882.38
2023-03-24T15:47:00.453Z,94880.69
2023-03-24T15:49:32.637Z,94884.72
2023-03-24T15:52:02.789Z,94882.91
2023-03-24T15:54:37.712Z,94859.13
2023-03-24T15:57:17.304Z,94859.13
2023-03-24T15:59:48.360Z,94849.78
2023-03-24T16:02:28.966Z,94856.66
2023-03-24T16:05:10.541Z,94869.75
2023-03-24T16:07:40.707Z,94864.91
2023-03-24T16:10:32.300Z,94860.34
2023-03-24T16:13:12.613Z,94847.13
2023-03-24T16:15:41.612Z,94834.94
2023-03-24T16:18:15.372Z,94825.34
2023-03-24T16:20:42.968Z,94796.03
2023-03-24T16:23:11.518Z,94783.44
2023-03-24T16:25:41.465Z,94792.81
2023-03-24T16:28:11.872Z,94803.53
2023-03-24T16:30:42.837Z,94822.97
2023-03-24T16:33:12.656Z,94830.69
2023-03-24T16:35:40.356Z,94821.56
2023-03-24T16:38:08.009Z,94813.91
2023-03-24T16:40:39.912Z,94818.81
2023-03-24T16:43:08.997Z,94817.28
2023-03-24T16:45:36.711Z,94821.50
2023-03-24T16:48:04.594Z,94831.69
2023-03-24T16:50:35.401Z,94835.94
2023-03-24T16:53:04.707Z,94831.34
2023-03-24T16:55:33.014Z,94828.53
2023-03-24T16:58:00.624Z,94832.78
2023-03-24T17:00:30.491Z,94840.66
2023-03-24T17:02:59.904Z,94853.34
2023-03-24T17:05:36.735Z,94849.28
2023-03-24T17:08:04.401Z,94857.81
2023-03-24T17:10:32.055Z,94836.69
2023-03-24T17:12:59.820Z,94849.28
2023-03-24T17:15:31.132Z,94844.00
2023-03-24T17:17:58.933Z,94834.03
2023-03-24T17:20:29.508Z,94832.25
2023-03-24T17:22:57.805Z,94840.75
2023-03-24T17:25:29.087Z,94866.50
2023-03-24T17:27:57.972Z,94854.13
2023-03-24T17:30:28.261Z,94845.63
2023-03-24T17:32:58.206Z,94856.56
2023-03-24T17:35:26.564Z,94848.47
2023-03-24T17:37:54.450Z,94854.91
2023-03-24T17:40:23.628Z,94841.53
2023-03-24T17:42:51.569Z,94840.13
2023-03-24T17:45:20.307Z,94843.59
2023-03-24T17:47:48.343Z,94846.81
2023-03-24T17:50:18.239Z,94844.97
2023-03-24T17:52:48.208Z,94847.41
2023-03-24T17:55:17.228Z,94858.75
2023-03-24T17:57:45.630Z,94870.72
2023-03-24T18:00:16.163Z,94858.97
2023-03-24T18:02:44.676Z,94866.47
2023-03-24T18:05:13.562Z,94867.84
2023-03-24T18:07:42.527Z,94852.03
2023-03-24T18:10:10.962Z,94831.19
2023-03-24T18:12:39.844Z,94847.56
2023-03-24T18:15:08.977Z,94852.44
2023-03-24T18:17:37.148Z,94876.56
2023-03-24T18:20:10.389Z,94867.44
2023-03-24T18:22:43.198Z,94858.91
2023-03-24T18:25:13.536Z,94864.44
2023-03-24T18:27:41.661Z,94865.44
2023-03-24T18:30:12.024Z,94877.09
2023-03-24T18:32:40.520Z,94887.66
2023-03-24T18:35:10.138Z,94907.19
2023-03-24T18:37:37.846Z,94920.94
2023-03-24T18:40:09.310Z,94912.84
2023-03-24T18:42:37.861Z,94906.69
2023-03-24T18:45:06.377Z,94916.97
2023-03-24T18:47:34.133Z,94919.84
2023-03-24T18:50:01.940Z,94931.56
2023-03-24T18:52:29.670Z,94920.59
2023-03-24T18:54:57.543Z,94921.00
2023-03-24T18:57:26.480Z,94921.88
2023-03-24T18:59:54.224Z,94918.63
2023-03-24T19:02:21.859Z,94925.53
2023-03-24T19:04:49.697Z,94934.44
2023-03-24T19:07:24.308Z,94947.78
2023-03-24T19:09:52.332Z,94956.75
2023-03-24T19:12:20.040Z,94960.19
2023-03-24T19:14:49.656Z,94966.28
2023-03-24T19:17:17.296Z,94957.31
2023-03-24T19:19:45.587Z,94948.88
2023-03-24T19:22:15.264Z,94962.50
2023-03-24T19:24:43.127Z,94964.66
2023-03-24T19:27:10.707Z,94960.34
2023-03-24T19:29:38.324Z,94950.28
2023-03-24T19:32:07.420Z,94960.22
2023-03-24T19:34:35.533Z,94961.50
2023-03-24T19:37:03.142Z,94979.38
2023-03-24T19:39:30.844Z,94962.31
2023-03-24T19:41:59.694Z,94957.94
2023-03-24T19:44:27.422Z,94967.78
2023-03-24T19:46:55.042Z,94968.72
2023-03-24T19:49:24.320Z,94960.94
2023-03-24T19:51:51.925Z,94962.81
2023-03-24T19:54:19.576Z,94937.69
2023-03-24T19:56:47.312Z,94947.41
2023-03-24T19:59:15.322Z,94934.84
2023-03-24T20:01:47.678Z,94944.00
2023-03-24T20:04:17.147Z,94981.19
2023-03-24T20:06:47.409Z,94945.78
2023-03-24T20:09:18.184Z,94957.25
2023-03-24T20:11:48.361Z,94967.19
2023-03-24T20:14:16.826Z,94951.53
2023-03-24T20:16:44.727Z,94973.59
2023-03-24T20:19:12.411Z,94976.09
2023-03-24T20:21:40.622Z,94962.97
2023-03-24T20:24:09.907Z,94963.38
2023-03-24T20:26:37.846Z,94948.84
2023-03-24T20:29:05.554Z,94952.44
2023-03-24T20:31:36.287Z,94964.78
2023-03-24T20:34:03.936Z,94964.81
2023-03-24T20:36:32.453Z,94955.38
2023-03-24T20:39:01.963Z,94978.78
2023-03-24T20:41:31.164Z,94970.00
2023-03-24T20:43:59.065Z,94981.34
2023-03-24T20:46:27.127Z,94977.56
2023-03-24T20:48:54.745Z,94968.19
2023-03-24T20:51:22.665Z,94983.22
2023-03-24T20:53:50.356Z,94979.72
2023-03-24T20:56:19.051Z,94980.59
2023-03-24T20:58:48.434Z,94997.75
2023-03-24T21:01:20.814Z,94990.47
2023-03-24T21:03:48.662Z,94988.88
2023-03-24T21:06:17.553Z,94996.88
2023-03-24T21:08:45.731Z,94988.88
2023-03-24T21:11:14.362Z,94994.63
2023-03-24T21:13:42.110Z,95006.91
2023-03-24T21:16:12.926Z,94980.84
2023-03-24T21:18:42.553Z,94973.63
2023-03-24T21:21:12.421Z,94997.50
2023-03-24T21:23:41.089Z,94976.78
2023-03-24T21:26:10.588Z,94994.25
2023-03-24T21:28:41.381Z,94994.44
2023-03-24T21:31:12.669Z,95008.84
2023-03-24T21:33:40.917Z,94986.66
2023-03-24T21:36:09.980Z,95002.63
2023-03-24T21:38:38.986Z,94998.81
2023-03-24T21:41:07.312Z,94995.13
2023-03-24T21:43:35.278Z,94998.25
2023-03-24T21:46:04.038Z,94992.72
2023-03-24T21:48:34.926Z,94985.34
2023-03-24T21:51:04.092Z,94989.41
2023-03-24T21:53:31.965Z,94995.56
2023-03-24T21:56:04.505Z,94989.59
2023-03-24T21:58:33.462Z,94992.69
2023-03-24T22:01:01.821Z,94989.81
2023-03-24T22:03:30.284Z,94989.88
2023-03-24T22:05:59.410Z,94996.00
2023-03-24T22:08:30.422Z,94997.88
2023-03-24T22:10:59.092Z,95002.75
2023-03-24T22:13:27.175Z,94990.84
2023-03-24T22:15:56.101Z,94994.94
2023-03-24T22:18:23.728Z,95003.16
2023-03-24T22:20:55.970Z,94998.50
2023-03-24T22:23:25.037Z,94998.13
2023-03-24T22:25:53.137Z,94994.88
2023-03-24T22:28:21.337Z,94997.22
2023-03-24T22:30:49.040Z,95006.13
2023-03-24T22:33:16.986Z,95004.88
2023-03-24T22:35:44.651Z,95016.28
2023-03-24T22:38:15.064Z,95013.22
2023-03-24T22:40:44.379Z,95005.69
2023-03-24T22:43:12.120Z,95004.88
2023-03-24T22:45:39.873Z,95009.22
2023-03-24T22:48:07.833Z,95006.44
2023-03-24T22:50:35.484Z,95019.81
2023-03-24T22:53:03.233Z,95021.72
2023-03-24T22:55:30.835Z,95025.00
2023-03-24T22:57:59.943Z,95019.03
2023-03-24T23:00:28.809Z,95021.56
2023-03-24T23:02:57.498Z,95012.94
2023-03-24T23:05:25.203Z,95016.97
2023-03-24T23:07:53.216Z,95013.69
2023-03-24T23:10:21.346Z,95012.16
2023-03-24T23:12:51.881Z,95020.56
2023-03-24T23:15:23.144Z,95021.41
2023-03-24T23:17:52.319Z,95031.50
2023-03-24T23:20:20.984Z,95039.44
2023-03-24T23:22:49.176Z,95040.75
2023-03-24T23:25:18.893Z,95034.97
2023-03-24T23:27:47.154Z,95051.13
2023-03-24T23:30:16.324Z,95054.00
2023-03-24T23:32:47.241Z,95046.81
2023-03-24T23:35:15.546Z,95044.69
2023-03-24T23:37:43.993Z,95052.00
2023-03-24T23:40:14.904Z,95045.28
2023-03-24T23:42:44.546Z,95037.88
2023-03-24T23:45:14.523Z,95045.34
2023-03-24T23:47:43.292Z,95046.72
2023-03-24T23:50:13.188Z,95037.88
2023-03-24T23:52:41.867Z,95035.94
2023-03-24T23:55:11.371Z,95034.81
2023-03-24T23:57:39.493Z,95033.69
